• Join FlightAware (Why Join?)
  • Login
  • US Flag 
12:08AM EDT


 

Airport Tracker/Info


-or-


 

Live Flight TrackerFlight Track Log ✈ N6728C ✈ 09-Aug-2013 ✈ KSYR - KIAG

Flight Track Log - Related Links

Times and Time Zones

All times are in EDT time to prevent confusion due to time zone crossing. See the N6728C flight status page for this flight to view local times or setup timezone preferences in your user account.

Time Position Orientation Groundspeed Altitude Reporting Facility
EDT Latitude Longitude Course Direction KTS MPH feet Rate Location/Type
04:35PM 43.1072 -76.1406 256° West 112 129 900  Level Boston Center
04:36PM 43.1022 -76.1686 256° West 117 135 1,400 600 Climbing Boston Center
04:37PM 43.0925 -76.2078 251° West 120 138 1,900 420 Climbing Boston Center
04:38PM 43.0808 -76.2469 248° West 122 140 2,300 420 Climbing Boston Center
04:39PM 43.0647 -76.2942 245° Southwest 115 132 2,800 420 Climbing Boston Center
04:40PM 43.0539 -76.3703 259° West 116 133 3,700 360 Climbing Boston Center
04:41PM 43.0564 -76.4158 274° West 112 129 4,000 120 Climbing Boston Center
04:42PM 43.0567 -76.4672 270° West 137 158 4,000  Level Boston Center
04:44PM 43.0567 -76.5239 270° West 143 165 4,000  Level Boston Center
04:45PM 43.0589 -76.5753 273° West 136 157 4,000  Level Boston Center
04:46PM 43.0611 -76.6294 273° West 130 150 4,000 60 Level Boston Center
04:46PM 43.0625 -76.6558 274° West 130 150 4,100 60 Climbing Cleveland Center
04:47PM 43.0614 -76.6814 267° West 130 150 4,100  Level Cleveland Center
04:48PM 43.0653 -76.7353 276° West 131 151 4,100  Level Cleveland Center
04:49PM 43.0647 -76.7836 269° West 130 150 4,100  Level Cleveland Center
04:50PM 43.0686 -76.8344 276° West 130 150 4,100  Level Cleveland Center
04:51PM 43.0700 -76.8828 272° West 125 144 4,100  Level Cleveland Center
04:52PM 43.0714 -76.9253 273° West 128 147 4,100  Level Cleveland Center
04:53PM 43.0750 -76.9733 276° West 130 150 4,100  Level Cleveland Center
04:54PM 43.0722 -77.0219 266° West 129 148 4,100  Level Cleveland Center
04:55PM 43.0781 -77.0728 279° West 124 143 4,100  Level Cleveland Center
04:56PM 43.0781 -77.1381 270° West 129 148 4,100  Level Cleveland Center
04:57PM 43.0789 -77.1722 272° West 128 147 4,100  Level Cleveland Center
04:58PM 43.0803 -77.2206 272° West 134 154 4,100  Level Cleveland Center
04:59PM 43.0800 -77.2803 270° West 126 145 4,100  Level Cleveland Center
05:00PM 43.0814 -77.3256 272° West 127 146 4,100  Level Cleveland Center
05:01PM 43.0825 -77.3708 272° West 127 146 4,100  Level Cleveland Center
05:02PM 43.0839 -77.4222 272° West 125 144 4,200  Climbing Cleveland Center
05:03PM 43.0897 -77.4758 278° West 127 146 4,100 -60 Descending Cleveland Center
05:04PM 43.0908 -77.5214 272° West 129 148 4,100  Level Cleveland Center
05:05PM 43.0958 -77.5581 281° West 129 148 4,100  Level Cleveland Center
05:06PM 43.0950 -77.6064 269° West 133 153 4,100  Level Cleveland Center
05:07PM 43.1031 -77.6714 280° West 134 154 4,100  Level Cleveland Center
05:08PM 43.1064 -77.7225 275° West 133 153 4,100  Level Cleveland Center
05:09PM 43.1056 -77.7794 269° West 129 148 4,100  Level Cleveland Center
05:11PM 43.1167 -77.8667 280° West 130 150 4,100  Level Buffalo TRACON
05:12PM 43.1167 -77.9167 270° West 130 150 4,100  Level Buffalo TRACON
05:13PM 43.1000 -77.9667 245° Southwest 131 151 4,100  Level Buffalo TRACON
05:14PM 43.1000 -78.0167 270° West 131 151 4,100  Level Buffalo TRACON
05:15PM 43.1000 -78.0667 270° West 134 154 4,100  Level Buffalo TRACON
05:16PM 43.1167 -78.1167 295° West 135 155 4,100  Level Buffalo TRACON
05:17PM 43.1333 -78.1667 295° West 128 147 4,100  Level Buffalo TRACON
05:18PM 43.1333 -78.2167 270° West 128 147 4,100  Level Buffalo TRACON
05:19PM 43.1500 -78.2667 295° West 130 150 4,100  Level Buffalo TRACON
05:20PM 43.1500 -78.3167 270° West 129 148 4,100  Level Buffalo TRACON
05:21PM 43.1500 -78.3667 270° West 128 147 4,100  Level Buffalo TRACON
05:22PM 43.1667 -78.4000 304° West 128 147 4,100  Level Buffalo TRACON
05:23PM 43.1667 -78.4500 270° West 129 148 4,100  Level Buffalo TRACON
05:24PM 43.1833 -78.5000 295° West 131 151 4,100 -360 Level Buffalo TRACON
05:25PM 43.1833 -78.5500 270° West 139 160 3,400 -660 Descending Buffalo TRACON
05:26PM 43.1833 -78.6167 270° West 150 173 2,800 -600 Descending Buffalo TRACON
05:27PM 43.1833 -78.6667 270° West 141 162 2,300 -240 Descending Buffalo TRACON
05:28PM 43.1667 -78.7000 236° Southwest 125 144 2,400 60 Climbing Buffalo TRACON
05:29PM 43.1333 -78.7500 228° Southwest 127 146 2,500  Climbing Buffalo TRACON
05:30PM 43.1333 -78.8000 270° West 131 151 2,500 -300 Level Buffalo TRACON
05:31PM 43.1500 -78.8333 304° West 116 133 1,900 -480 Descending Buffalo TRACON
05:32PM 43.1500 -78.8833 270° West 95 109 1,600 -420 Descending Buffalo TRACON
05:33PM 43.1333 -78.9000 216° Southwest 99 114 1,100 -540 Descending Buffalo TRACON
05:35PM 43.1000 -78.9333 270° West  Level FlightAware Approximate
05:42PM 43.1076 -78.9458 270° West  Level Estimated